• Join FlightAware (Why Join?)
  • Login
  • US Flag 
02:13AM EDT


 

Airport Tracker/Info


-or-


 

Live Flight TrackerFlight Track Log ✈ EJA982 ✈ 06-May-2013 ✈ KIAD - KLGA

Flight Track Log - Related Links

Times and Time Zones

All times are in EDT time to prevent confusion due to time zone crossing. See the EJA982 flight status page for this flight to view local times or setup timezone preferences in your user account.

Time Position Orientation Groundspeed Altitude Reporting Facility
EDT Latitude Longitude Course Direction KTS MPH feet Rate Location/Type
08:15PM 39.0167 -77.5333 113° Southeast 285 328 4,700  Level Potomac TRACON
08:17PM 39.0851 -77.3988 38° Northeast  Level Estimated
08:17PM 39.1500 -77.4500 38° Northeast 282 325 9,000  Level Potomac TRACON
08:18PM 39.1833 -77.3667 63° Northeast 280 322 9,000 720 Level Potomac TRACON
08:20PM 39.2552 -77.2173 38° Northeast  Level Estimated
08:21PM 39.2799 -76.8397 113° Southeast  Level FlightAware Approximate
08:21PM 39.2847 -77.1469 38° Northeast 306 352 11,600  Level Washington Center
08:22PM 39.3236 -77.0350 66° East 325 374 14,200 2,520 Climbing Washington Center
08:23PM 39.2981 -76.9083 105° East 330 380 16,800 2,340 Climbing Washington Center
08:24PM 39.2597 -76.7792 111° Southeast 342 394 19,000 1,380 Climbing Washington Center
08:26PM 39.1725 -76.5019 112° Southeast 395 455 21,000 660 Climbing Washington Center
08:27PM 39.1278 -76.3594 112° Southeast 421 484 21,000  Level Washington Center
08:28PM 39.0867 -76.2253 112° Southeast 415 478 21,000  Level Washington Center
08:29PM 39.0539 -76.1022 109° East 390 449 21,000  Level Washington Center
08:30PM 39.0461 -75.9686 94° East 393 452 21,000  Level Washington Center
08:31PM 39.0756 -75.8322 74° East 393 452 21,000  Level Washington Center
08:32PM 39.1364 -75.7172 56° Northeast 388 447 21,000  Level Washington Center
08:33PM 39.1967 -75.5917 58° Northeast 388 447 21,000  Level Washington Center
08:35PM 39.3717 -75.3956 41° Northeast 406 467 21,000  Level Washington Center
08:36PM 39.4653 -75.3119 35° Northeast 406 467 21,000  Level Washington Center
08:37PM 39.5608 -75.2256 35° Northeast 406 467 21,000  Level Washington Center
08:38PM 39.6503 -75.1386 37° Northeast 406 467 21,000 -1,140 Level Washington Center
08:39PM 39.7539 -75.0492 34° Northeast 406 467 18,800 -2,100 Descending Washington Center
08:40PM 39.8392 -74.9756 34° Northeast 406 467 16,900 -2,100 Descending Washington Center
08:41PM 39.9333 -74.8667 42° Northeast 374 430 14,400 -2,100 Descending New York TRACON
08:43PM 40.0393 -74.7213 57° Northeast  Level FlightAware Approximate
08:43PM 40.0833 -74.6667 57° Northeast 355 409 10,200  Level New York TRACON
08:44PM 40.1500 -74.5833 44° Northeast 343 395 10,100 -120 Descending New York TRACON
08:45PM 40.2167 -74.4833 49° Northeast 347 399 10,000 -900 Descending New York TRACON
08:46PM 40.2833 -74.4000 44° Northeast 324 373 8,400 -1,500 Descending New York TRACON
08:47PM 40.3333 -74.3333 45° Northeast 277 319 7,100 -480 Descending New York TRACON
08:49PM 40.4667 -74.2500 25° Northeast 276 318 7,100 -120 Level New York TRACON
08:50PM 40.5000 -74.1667 62° Northeast 276 318 6,900 -1,200 Descending New York TRACON
08:51PM 40.5500 -74.0833 52° Northeast 276 318 4,800 -1,380 Descending New York TRACON
08:52PM 40.6333 -74.0500 17° North 267 307 4,100 -420 Descending New York TRACON
08:53PM 40.7000 -74.0333 11° North 259 298 4,000 -60 Descending New York TRACON
08:54PM 40.7667 -74.0000 21° North 252 290 4,000  Level New York TRACON
08:55PM 40.8167 -73.9833 14° North 207 238 4,100  Climbing New York TRACON
08:57PM 40.7772 -73.8726 30° Northeast  Level Estimated
08:57PM 40.9167 -73.9000 30° Northeast 194 223 4,000  Level New York TRACON
08:58PM 40.9500 -73.8500 49° Northeast 198 228 3,900 -120 Descending New York TRACON